createdAt,value
2019-01-21T00:01:04.436Z,54.07
2019-01-21T00:04:09.669Z,42.60
2019-01-21T00:07:14.929Z,39.80
2019-01-21T00:10:20.124Z,43.57
2019-01-21T00:13:25.286Z,41.90
2019-01-21T00:16:30.435Z,42.07
2019-01-21T00:19:36.572Z,39.27
2019-01-21T00:22:41.690Z,46.67
2019-01-21T00:25:46.882Z,52.63
2019-01-21T00:28:52.066Z,40.03
2019-01-21T00:31:57.249Z,48.33
2019-01-21T00:35:02.399Z,64.63
2019-01-21T00:38:07.626Z,43.33
2019-01-21T00:41:12.781Z,38.10
2019-01-21T00:44:19.032Z,40.43
2019-01-21T00:47:29.888Z,42.73
2019-01-21T00:50:31.019Z,38.10
2019-01-21T00:53:36.228Z,33.33
2019-01-21T00:56:41.342Z,35.50
2019-01-21T00:59:46.477Z,38.77
2019-01-21T01:02:51.587Z,32.60
2019-01-21T01:05:56.770Z,34.60
2019-01-21T01:09:01.873Z,36.13
2019-01-21T01:12:08.901Z,33.53
2019-01-21T01:15:15.053Z,36.13
2019-01-21T01:18:21.837Z,35.07
2019-01-21T01:21:26.925Z,43.87
2019-01-21T01:24:32.150Z,44.17
2019-01-21T01:27:37.482Z,39.30
2019-01-21T01:30:42.608Z,39.90
2019-01-21T01:33:47.754Z,40.13
2019-01-21T01:36:52.865Z,40.70
2019-01-21T01:39:57.998Z,39.50
2019-01-21T01:43:03.171Z,35.93
2019-01-21T01:46:08.311Z,40.67
2019-01-21T01:49:13.593Z,37.47
2019-01-21T01:52:18.673Z,31.57
2019-01-21T01:55:25.243Z,27.20
2019-01-21T01:58:30.361Z,35.10
2019-01-21T02:01:35.500Z,32.60
2019-01-21T02:04:40.654Z,35.97
2019-01-21T02:07:46.034Z,35.27
2019-01-21T02:10:51.279Z,29.37
2019-01-21T02:13:56.412Z,30.17
2019-01-21T02:17:01.567Z,26.67
2019-01-21T02:20:09.267Z,25.90
2019-01-21T02:23:17.859Z,32.83
2019-01-21T02:26:25.729Z,32.83
2019-01-21T02:30:26.812Z,35.97
2019-01-21T02:34:16.693Z,31.60
2019-01-21T02:37:52.533Z,30.20
2019-01-21T02:41:39.102Z,36.37
2019-01-21T02:45:31.695Z,34.07
2019-01-21T02:48:59.470Z,33.53
2019-01-21T02:52:44.281Z,32.17
2019-01-21T02:56:03.209Z,30.47
2019-01-21T03:00:10.637Z,28.37
2019-01-21T03:03:53.120Z,22.90
2019-01-21T03:07:08.307Z,23.93
2019-01-21T03:10:35.002Z,24.37
2019-01-21T03:14:24.089Z,26.83
2019-01-21T03:18:08.073Z,28.70
2019-01-21T03:21:45.742Z,26.63
2019-01-21T03:25:20.775Z,41.67
2019-01-21T03:29:10.003Z,27.33
2019-01-21T03:32:55.662Z,26.20
2019-01-21T03:36:41.821Z,29.13
2019-01-21T03:40:12.881Z,23.77
2019-01-21T03:43:57.486Z,26.57
2019-01-21T03:47:26.318Z,22.70
2019-01-21T03:51:06.631Z,21.80
2019-01-21T03:54:32.597Z,24.30
2019-01-21T03:58:19.161Z,26.80
2019-01-21T04:01:47.371Z,24.30
2019-01-21T04:05:28.022Z,26.73
2019-01-21T04:09:09.044Z,24.60
2019-01-21T04:12:50.844Z,24.50
2019-01-21T04:16:18.510Z,20.80
2019-01-21T04:19:53.081Z,27.13
2019-01-21T04:23:35.102Z,24.57
2019-01-21T04:27:09.403Z,23.90
2019-01-21T04:30:54.453Z,24.57
2019-01-21T04:34:24.202Z,24.33
2019-01-21T04:38:00.644Z,23.53
2019-01-21T04:41:40.357Z,31.23
2019-01-21T04:45:00.426Z,25.60
2019-01-21T04:48:46.358Z,25.77
2019-01-21T04:52:59.580Z,28.63
2019-01-21T04:56:44.712Z,27.60
2019-01-21T05:00:38.713Z,25.73
2019-01-21T05:04:19.889Z,27.87
2019-01-21T05:08:12.043Z,32.03
2019-01-21T05:11:52.861Z,27.60
2019-01-21T05:15:29.051Z,28.30
2019-01-21T05:19:21.277Z,27.40
2019-01-21T05:23:01.998Z,28.20
2019-01-21T05:26:19.571Z,32.77
2019-01-21T05:30:11.100Z,30.00
2019-01-21T05:33:44.237Z,30.43
2019-01-21T05:37:30.254Z,31.00
2019-01-21T05:41:05.686Z,29.33
2019-01-21T05:44:35.402Z,24.33
2019-01-21T05:48:17.371Z,38.90
2019-01-21T05:51:59.585Z,30.73
2019-01-21T05:55:56.507Z,26.27
2019-01-21T05:59:38.785Z,27.57
2019-01-21T06:03:27.067Z,29.40
2019-01-21T06:06:43.858Z,32.23
2019-01-21T06:10:16.736Z,30.43
2019-01-21T06:14:05.199Z,34.67
2019-01-21T06:17:49.687Z,36.43
2019-01-21T06:21:31.775Z,30.30
2019-01-21T06:24:51.080Z,35.23
2019-01-21T06:28:25.690Z,36.83
2019-01-21T06:31:57.259Z,34.60
2019-01-21T06:35:46.562Z,30.90
2019-01-21T06:39:12.353Z,37.00
2019-01-21T06:43:10.893Z,35.53
2019-01-21T06:46:47.306Z,38.87
2019-01-21T06:50:28.631Z,45.23
2019-01-21T06:53:58.433Z,38.10
2019-01-21T06:57:37.502Z,37.57
2019-01-21T07:01:15.550Z,40.00
2019-01-21T07:04:49.319Z,35.83
2019-01-21T07:08:30.343Z,37.90
2019-01-21T07:12:06.578Z,33.80
2019-01-21T07:15:52.564Z,37.83
2019-01-21T07:19:30.753Z,42.40
2019-01-21T07:23:10.130Z,43.83
2019-01-21T07:26:52.039Z,41.90
2019-01-21T07:30:41.068Z,41.27
2019-01-21T07:34:05.819Z,37.27
2019-01-21T07:37:20.517Z,36.50
2019-01-21T07:41:18.258Z,34.83
2019-01-21T07:44:59.711Z,34.40
2019-01-21T07:48:44.010Z,32.23
2019-01-21T07:52:39.010Z,33.20
2019-01-21T07:56:30.062Z,31.90
2019-01-21T08:00:04.621Z,34.80
2019-01-21T08:03:47.063Z,35.53
2019-01-21T08:07:02.702Z,35.37
2019-01-21T08:11:04.044Z,39.90
2019-01-21T08:14:34.661Z,40.53
2019-01-21T08:18:17.827Z,37.07
2019-01-21T08:21:39.906Z,37.47
2019-01-21T08:25:21.435Z,33.50
2019-01-21T08:28:54.722Z,42.57
2019-01-21T08:32:50.030Z,35.37
2019-01-21T08:36:15.638Z,37.60
2019-01-21T08:39:57.345Z,33.03
2019-01-21T08:43:43.884Z,38.63
2019-01-21T08:47:18.010Z,37.23
2019-01-21T08:51:06.145Z,41.83
2019-01-21T08:54:40.061Z,31.97
2019-01-21T08:58:06.638Z,30.97
2019-01-21T09:01:45.830Z,29.70
2019-01-21T09:05:16.650Z,28.67
2019-01-21T09:08:56.617Z,27.60
2019-01-21T09:12:34.535Z,25.37
2019-01-21T09:16:19.455Z,23.40
2019-01-21T09:20:10.767Z,29.77
2019-01-21T09:24:01.045Z,20.63
2019-01-21T09:27:34.187Z,25.43
2019-01-21T09:31:26.444Z,24.47
2019-01-21T09:35:21.901Z,67.83
2019-01-21T09:39:05.683Z,23.37
2019-01-21T09:42:24.291Z,19.63
2019-01-21T09:46:14.858Z,21.17
2019-01-21T09:49:18.424Z,19.97
2019-01-21T09:52:25.056Z,24.73
2019-01-21T09:55:30.527Z,36.93
2019-01-21T09:58:35.945Z,31.83
2019-01-21T10:01:41.098Z,30.67
2019-01-21T10:05:05.944Z,29.70
2019-01-21T10:08:23.189Z,28.27
2019-01-21T10:12:21.638Z,27.30
2019-01-21T10:15:35.817Z,23.87
2019-01-21T10:19:13.167Z,25.23
2019-01-21T10:22:43.542Z,21.77
2019-01-21T10:26:11.338Z,23.83
2019-01-21T10:29:56.895Z,26.80
2019-01-21T10:33:48.827Z,23.10
2019-01-21T10:37:40.989Z,22.83
2019-01-21T10:41:20.068Z,29.37
2019-01-21T10:45:06.508Z,28.63
2019-01-21T10:48:28.757Z,29.23
2019-01-21T10:52:16.861Z,27.57
2019-01-21T10:56:12.087Z,27.73
2019-01-21T11:00:07.034Z,24.93
2019-01-21T11:03:24.613Z,21.53
2019-01-21T11:07:06.733Z,21.10
2019-01-21T11:10:53.328Z,24.10
2019-01-21T11:14:35.332Z,23.80
2019-01-21T11:17:58.346Z,26.00
2019-01-21T11:21:28.118Z,23.67
2019-01-21T11:25:18.301Z,26.83
2019-01-21T11:28:49.073Z,29.53
2019-01-21T11:32:25.143Z,24.37
2019-01-21T11:36:08.398Z,26.50
2019-01-21T11:40:05.013Z,25.10
2019-01-21T11:44:12.206Z,25.60
2019-01-21T11:47:49.294Z,25.27
2019-01-21T11:51:50.568Z,22.23
2019-01-21T11:55:28.553Z,22.87
2019-01-21T11:59:29.565Z,20.30
2019-01-21T12:03:23.491Z,21.50
2019-01-21T12:06:42.556Z,24.97
2019-01-21T12:10:10.216Z,24.43
2019-01-21T12:13:51.840Z,23.27
2019-01-21T12:17:20.972Z,23.77
2019-01-21T12:20:59.704Z,22.80
2019-01-21T12:24:31.320Z,20.83
2019-01-21T12:28:03.090Z,22.00
2019-01-21T12:31:31.056Z,23.03
2019-01-21T12:35:13.503Z,21.87
2019-01-21T12:38:53.373Z,23.90
2019-01-21T12:42:36.130Z,21.93
2019-01-21T12:46:12.279Z,22.47
2019-01-21T12:49:40.199Z,22.37
2019-01-21T12:53:04.765Z,23.20
2019-01-21T12:56:35.867Z,23.20
2019-01-21T13:00:00.677Z,24.93
2019-01-21T13:03:49.973Z,21.73
2019-01-21T13:07:48.367Z,23.23
2019-01-21T13:11:33.018Z,21.50
2019-01-21T13:15:11.561Z,22.07
2019-01-21T13:19:09.963Z,22.50
2019-01-21T13:22:41.232Z,23.63
2019-01-21T13:26:19.086Z,22.00
2019-01-21T13:30:00.628Z,22.67
2019-01-21T13:33:24.630Z,18.50
2019-01-21T13:37:10.959Z,20.73
2019-01-21T13:41:12.313Z,21.40
2019-01-21T13:44:49.611Z,22.67
2019-01-21T13:48:39.198Z,19.57
2019-01-21T13:52:08.248Z,22.20
2019-01-21T13:55:26.011Z,19.77
2019-01-21T13:59:07.579Z,22.33
2019-01-21T14:02:56.755Z,24.80
2019-01-21T14:06:33.468Z,20.43
2019-01-21T14:10:22.953Z,20.87
2019-01-21T14:13:52.950Z,19.87
2019-01-21T14:17:43.575Z,23.10
2019-01-21T14:21:35.606Z,23.60
2019-01-21T14:25:26.859Z,18.93
2019-01-21T14:29:06.092Z,19.73
2019-01-21T14:32:43.141Z,20.10
2019-01-21T14:36:29.216Z,24.70
2019-01-21T14:39:47.732Z,25.77
2019-01-21T14:43:15.020Z,25.77
2019-01-21T14:46:49.751Z,21.37
2019-01-21T14:50:17.837Z,19.63
2019-01-21T14:53:49.101Z,20.50
2019-01-21T14:57:23.852Z,20.43
2019-01-21T15:00:59.100Z,19.20
2019-01-21T15:04:48.020Z,22.20
2019-01-21T15:08:02.519Z,19.37
2019-01-21T15:11:34.390Z,22.07
2019-01-21T15:15:22.414Z,21.00
2019-01-21T15:18:48.152Z,21.50
2019-01-21T15:22:34.555Z,22.40
2019-01-21T15:26:03.515Z,21.97
2019-01-21T15:29:43.448Z,21.80
2019-01-21T15:33:44.192Z,20.73
2019-01-21T15:37:18.455Z,22.23
2019-01-21T15:41:03.417Z,27.87
2019-01-21T15:44:30.581Z,28.63
2019-01-21T15:48:18.405Z,19.53
2019-01-21T15:52:07.552Z,21.77
2019-01-21T15:56:02.051Z,25.37
2019-01-21T15:59:35.594Z,25.80
2019-01-21T16:03:12.899Z,21.67
2019-01-21T16:06:49.460Z,25.33
2019-01-21T16:10:38.992Z,22.73
2019-01-21T16:14:00.977Z,32.40
2019-01-21T16:17:33.166Z,54.20
2019-01-21T16:21:31.681Z,32.17
2019-01-21T16:24:44.728Z,33.80
2019-01-21T16:28:49.511Z,29.27
2019-01-21T16:32:09.309Z,39.10
2019-01-21T16:35:59.931Z,31.77
2019-01-21T16:39:38.533Z,32.67
2019-01-21T16:42:43.785Z,32.13
2019-01-21T16:45:48.952Z,32.90
2019-01-21T16:48:54.079Z,30.47
2019-01-21T16:51:59.311Z,35.07
2019-01-21T16:55:04.762Z,35.33
2019-01-21T16:58:09.925Z,35.53
2019-01-21T17:01:15.077Z,45.27
2019-01-21T17:04:20.329Z,40.67
2019-01-21T17:07:25.552Z,32.67
2019-01-21T17:10:30.706Z,26.60
2019-01-21T17:13:35.886Z,28.23
2019-01-21T17:16:41.048Z,26.73
2019-01-21T17:19:46.212Z,20.97
2019-01-21T17:22:51.408Z,22.77
2019-01-21T17:25:56.499Z,21.53
2019-01-21T17:29:01.670Z,22.17
2019-01-21T17:32:06.986Z,29.70
2019-01-21T17:35:12.986Z,40.70
2019-01-21T17:38:18.129Z,28.93
2019-01-21T17:41:23.479Z,33.93
2019-01-21T17:44:28.726Z,33.60
2019-01-21T17:47:33.890Z,36.60
2019-01-21T17:50:39.003Z,26.67
2019-01-21T17:53:44.251Z,22.43
2019-01-21T17:56:49.459Z,24.40
2019-01-21T17:59:54.782Z,24.30
2019-01-21T18:02:59.969Z,21.07
2019-01-21T18:06:05.568Z,22.87
2019-01-21T18:09:11.100Z,22.57
2019-01-21T18:12:16.394Z,25.37
2019-01-21T18:15:21.536Z,28.00
2019-01-21T18:18:26.828Z,34.33
2019-01-21T18:21:32.066Z,66.80
2019-01-21T18:24:38.377Z,70.10
2019-01-21T18:27:43.516Z,63.40
2019-01-21T18:30:48.750Z,53.70
2019-01-21T18:33:53.913Z,60.83
2019-01-21T18:36:59.430Z,50.93
2019-01-21T18:40:05.077Z,70.70
2019-01-21T18:43:10.399Z,57.50
2019-01-21T18:46:15.653Z,57.37
2019-01-21T18:49:22.904Z,39.17
2019-01-21T18:52:27.701Z,37.77
2019-01-21T18:55:32.933Z,40.30
2019-01-21T18:58:38.146Z,34.80
2019-01-21T19:01:43.371Z,30.63
2019-01-21T19:04:48.603Z,36.87
2019-01-21T19:07:53.851Z,31.30
2019-01-21T19:10:59.066Z,23.47
2019-01-21T19:14:04.999Z,24.00
2019-01-21T19:17:10.178Z,27.00
2019-01-21T19:20:16.194Z,27.03
2019-01-21T19:23:21.385Z,25.20
2019-01-21T19:26:26.610Z,24.87
2019-01-21T19:29:31.838Z,28.00
2019-01-21T19:32:37.065Z,26.23
2019-01-21T19:35:42.264Z,30.53
2019-01-21T19:38:47.562Z,39.23
2019-01-21T19:41:52.795Z,38.53
2019-01-21T19:44:58.029Z,36.90
2019-01-21T19:48:03.289Z,44.50
2019-01-21T19:51:08.711Z,74.43
2019-01-21T19:54:14.065Z,42.40
2019-01-21T19:57:19.299Z,45.53
2019-01-21T20:00:24.864Z,44.17
2019-01-21T20:03:30.151Z,37.27
2019-01-21T20:06:35.279Z,65.93
2019-01-21T20:09:40.532Z,34.53
2019-01-21T20:12:45.779Z,41.17
2019-01-21T20:15:50.957Z,36.50
2019-01-21T20:18:56.155Z,45.90
2019-01-21T20:22:07.031Z,36.63
2019-01-21T20:25:09.432Z,39.27
2019-01-21T20:28:14.592Z,38.40
2019-01-21T20:31:21.305Z,44.77
2019-01-21T20:34:26.617Z,43.10
2019-01-21T20:37:31.867Z,39.57
2019-01-21T20:40:37.185Z,39.67
2019-01-21T20:43:42.340Z,33.50
2019-01-21T20:46:47.587Z,36.10
2019-01-21T20:49:52.870Z,36.73
2019-01-21T20:52:58.098Z,40.13
2019-01-21T20:56:03.270Z,45.33
2019-01-21T20:59:08.541Z,43.27
2019-01-21T21:02:13.729Z,69.20
2019-01-21T21:05:18.990Z,66.77
2019-01-21T21:08:24.163Z,64.67
2019-01-21T21:11:29.439Z,56.47
2019-01-21T21:14:34.620Z,45.40
2019-01-21T21:17:39.927Z,47.67
2019-01-21T21:20:45.906Z,36.40
2019-01-21T21:23:51.129Z,42.47
2019-01-21T21:26:56.383Z,43.90
2019-01-21T21:30:01.699Z,45.17
2019-01-21T21:33:08.121Z,47.37
2019-01-21T21:36:13.265Z,37.67
2019-01-21T21:39:18.481Z,33.43
2019-01-21T21:42:23.661Z,29.93
2019-01-21T21:45:28.916Z,36.57
2019-01-21T21:48:34.175Z,34.23
2019-01-21T21:51:39.396Z,35.73
2019-01-21T21:54:44.597Z,38.63
2019-01-21T21:57:49.722Z,33.13
2019-01-21T22:00:55.423Z,33.47
2019-01-21T22:04:00.703Z,37.03
2019-01-21T22:07:06.119Z,40.17
2019-01-21T22:10:19.615Z,36.07
2019-01-21T22:13:22.522Z,35.30
2019-01-21T22:16:27.970Z,34.97
2019-01-21T22:19:33.278Z,35.77
2019-01-21T22:22:38.465Z,37.87
2019-01-21T22:25:43.780Z,36.43
2019-01-21T22:28:48.921Z,29.83
2019-01-21T22:31:54.067Z,34.83
2019-01-21T22:34:59.538Z,36.27
2019-01-21T22:38:04.704Z,29.50
2019-01-21T22:41:09.834Z,37.37
2019-01-21T22:44:15.030Z,31.60
2019-01-21T22:47:20.248Z,34.43
2019-01-21T22:50:25.406Z,35.50
2019-01-21T22:53:30.587Z,29.83
2019-01-21T22:56:35.708Z,28.60
2019-01-21T22:59:40.799Z,40.87
2019-01-21T23:02:45.970Z,39.57
2019-01-21T23:05:51.089Z,41.37
2019-01-21T23:08:56.473Z,35.17
2019-01-21T23:12:01.605Z,38.57
2019-01-21T23:15:07.359Z,40.67
2019-01-21T23:18:12.706Z,37.77
2019-01-21T23:21:19.415Z,32.93
2019-01-21T23:24:24.605Z,32.57
2019-01-21T23:27:29.766Z,35.30
2019-01-21T23:30:35.080Z,35.07
2019-01-21T23:33:40.190Z,33.47
2019-01-21T23:36:45.367Z,33.43
2019-01-21T23:39:51.510Z,31.53
2019-01-21T23:42:56.667Z,34.07
2019-01-21T23:46:01.834Z,34.40
2019-01-21T23:49:07.005Z,33.23
2019-01-21T23:52:12.225Z,33.40
2019-01-21T23:55:17.330Z,37.47
2019-01-21T23:58:22.499Z,34.60
